^^
Your Local Weather - Clay, NY Station Historical Data
Daily Summary for September 10, 2017 Units:  English    Metric   Both
« Previous Day
Next Day »
Daily Weekly Monthly Yearly Custom
  High: Low: Average:
Temperature: 65.6 °F 42.0 °F 53.7 °F
Dew Point: 51.4 °F 40.4 °F 45.9 °F
Humidity: 95% 48% 78%
Wind Speed: 5.0mph 0.0mph 0.9mph
Wind Gust: 8.0mph - -
Wind- - West
Pressure: 30.45 in 30.35 in -
Precipitation: 0.00 in    
Historical Graphs
 
 
Tabular Data for September 10, 2017
Time Temperature Dew Point Pressure Wind Wind Speed Wind Gust Humidity Rainfall Rate (Hourly) solar
00:03 51.9 °F 49.4 °F 30.36 in Calm     91% 0.00 in 0 W/m2
00:09 51.6 °F 49.1 °F 30.35 in Calm     91% 0.00 in 0 W/m2
00:15 51.3 °F 48.8 °F 30.35 in Calm     91% 0.00 in 0 W/m2
00:21 51.0 °F 48.5 °F 30.35 in Calm     91% 0.00 in 0 W/m2
00:27 50.8 °F 48.3 °F 30.35 in Calm     91% 0.00 in 0 W/m2
00:33 50.5 °F 48.0 °F 30.35 in Calm     91% 0.00 in 0 W/m2
00:39 50.3 °F 48.1 °F 30.36 in Calm     92% 0.00 in 0 W/m2
00:45 50.1 °F 47.9 °F 30.35 in Calm     92% 0.00 in 0 W/m2
00:51 49.8 °F 47.6 °F 30.36 in Calm     92% 0.00 in 0 W/m2
00:57 49.6 °F 47.4 °F 30.36 in Calm     92% 0.00 in 0 W/m2
01:02 49.4 °F 47.2 °F 30.36 in Calm     92% 0.00 in 0 W/m2
01:08 49.1 °F 46.9 °F 30.36 in Calm     92% 0.00 in 0 W/m2
01:14 48.9 °F 46.7 °F 30.36 in Calm     92% 0.00 in 0 W/m2
01:20 48.7 °F 46.5 °F 30.36 in Calm     92% 0.00 in 0 W/m2
01:26 48.5 °F 46.3 °F 30.36 in Calm     92% 0.00 in 0 W/m2
01:32 48.4 °F 46.2 °F 30.36 in Calm     92% 0.00 in 0 W/m2
01:38 48.1 °F 45.9 °F 30.36 in Calm     92% 0.00 in 0 W/m2
01:44 47.9 °F 45.7 °F 30.36 in Calm     92% 0.00 in 0 W/m2
01:50 47.7 °F 45.5 °F 30.36 in Calm     92% 0.00 in 0 W/m2
01:56 47.5 °F 45.3 °F 30.36 in Calm     92% 0.00 in 0 W/m2
02:02 47.2 °F 45.3 °F 30.36 in Calm     93% 0.00 in 0 W/m2
02:08 47.2 °F 45.3 °F 30.36 in Calm     93% 0.00 in 0 W/m2
02:14 47.1 °F 45.2 °F 30.36 in Calm     93% 0.00 in 0 W/m2
02:20 47.0 °F 45.1 °F 30.36 in Calm     93% 0.00 in 0 W/m2
02:26 46.8 °F 44.9 °F 30.36 in Calm     93% 0.00 in 0 W/m2
02:32 46.5 °F 44.6 °F 30.36 in Calm     93% 0.00 in 0 W/m2
02:38 46.4 °F 44.5 °F 30.36 in Calm     93% 0.00 in 0 W/m2
02:44 46.3 °F 44.4 °F 30.36 in Calm     93% 0.00 in 0 W/m2
02:50 46.4 °F 44.5 °F 30.36 in Calm     93% 0.00 in 0 W/m2
02:56 46.5 °F 44.6 °F 30.37 in Calm     93% 0.00 in 0 W/m2
03:02 46.3 °F 44.4 °F 30.36 in Calm     93% 0.00 in 0 W/m2
03:08 46.2 °F 44.3 °F 30.36 in Calm     93% 0.00 in 0 W/m2
03:14 46.0 °F 44.1 °F 30.36 in Calm     93% 0.00 in 0 W/m2
03:20 45.8 °F 43.9 °F 30.36 in Calm     93% 0.00 in 0 W/m2
03:26 45.7 °F 43.8 °F 30.36 in Calm     93% 0.00 in 0 W/m2
03:32 45.8 °F 43.9 °F 30.36 in Calm     93% 0.00 in 0 W/m2
03:38 45.8 °F 43.9 °F 30.36 in Calm     93% 0.00 in 0 W/m2
03:44 45.6 °F 43.7 °F 30.37 in Calm     93% 0.00 in 0 W/m2
03:50 45.6 °F 43.7 °F 30.37 in Calm     93% 0.00 in 0 W/m2
03:56 45.6 °F 43.7 °F 30.37 in Calm     93% 0.00 in 0 W/m2
04:02 45.4 °F 43.5 °F 30.37 in Calm     93% 0.00 in 0 W/m2
04:08 45.4 °F 43.5 °F 30.37 in Calm     93% 0.00 in 0 W/m2
04:14 45.3 °F 43.4 °F 30.37 in Calm     93% 0.00 in 0 W/m2
04:20 45.2 °F 43.6 °F 30.37 in Calm     94% 0.00 in 0 W/m2
04:26 45.1 °F 43.2 °F 30.38 in Calm     93% 0.00 in 0 W/m2
04:32 45.0 °F 43.1 °F 30.38 in Calm     93% 0.00 in 0 W/m2
04:38 45.0 °F 43.1 °F 30.38 in Calm     93% 0.00 in 0 W/m2
04:44 44.9 °F 43.3 °F 30.38 in Calm     94% 0.00 in 0 W/m2
04:50 44.8 °F 43.2 °F 30.38 in Calm     94% 0.00 in 0 W/m2
04:58 44.5 °F 42.6 °F 30.38 in Calm     93% 0.00 in 0 W/m2
05:04 44.5 °F 42.9 °F 30.38 in Calm     94% 0.00 in 0 W/m2
05:10 44.2 °F 42.6 °F 30.39 in Calm     94% 0.00 in 0 W/m2
05:16 43.9 °F 42.0 °F 30.39 in Calm     93% 0.00 in 0 W/m2
05:22 43.7 °F 41.8 °F 30.39 in Calm     93% 0.00 in 0 W/m2
05:28 43.5 °F 41.9 °F 30.39 in Calm     94% 0.00 in 0 W/m2
05:34 43.4 °F 41.5 °F 30.39 in Calm     93% 0.00 in 0 W/m2
05:40 43.4 °F 41.8 °F 30.39 in Calm     94% 0.00 in 0 W/m2
05:46 43.4 °F 41.8 °F 30.40 in Calm     94% 0.00 in 0 W/m2
05:52 43.2 °F 41.6 °F 30.40 in Calm     94% 0.00 in 0 W/m2
05:58 42.9 °F 41.3 °F 30.40 in Calm     94% 0.00 in 0 W/m2
06:04 42.7 °F 41.1 °F 30.40 in Calm     94% 0.00 in 0 W/m2
06:10 42.5 °F 40.9 °F 30.40 in Calm     94% 0.00 in 0 W/m2
06:16 42.4 °F 40.8 °F 30.40 in Calm     94% 0.00 in 0 W/m2
06:22 42.2 °F 40.6 °F 30.40 in Calm     94% 0.00 in 0 W/m2
06:28 42.2 °F 40.6 °F 30.41 in Calm     94% 0.00 in 0 W/m2
06:34 42.2 °F 40.6 °F 30.41 in Calm     94% 0.00 in 0 W/m2
06:40 42.0 °F 40.4 °F 30.41 in Calm     94% 0.00 in 0 W/m2
06:46 42.0 °F 40.4 °F 30.41 in Calm     94% 0.00 in 7 W/m2
06:52 42.2 °F 40.6 °F 30.41 in Calm     94% 0.00 in 12 W/m2
06:58 42.2 °F 40.6 °F 30.42 in Calm     94% 0.00 in 16 W/m2
07:04 42.1 °F 40.5 °F 30.42 in Calm     94% 0.00 in 19 W/m2
07:10 42.1 °F 40.5 °F 30.42 in Calm     94% 0.00 in 25 W/m2
07:16 42.0 °F 40.4 °F 30.42 in Calm     94% 0.00 in 30 W/m2
07:22 42.0 °F 40.4 °F 30.42 in Calm     94% 0.00 in 35 W/m2
07:28 42.2 °F 40.6 °F 30.42 in Calm     94% 0.00 in 40 W/m2
07:34 42.4 °F 40.8 °F 30.43 in Calm     94% 0.00 in 46 W/m2
07:40 42.9 °F 41.3 °F 30.43 in Calm     94% 0.00 in 49 W/m2
07:46 43.3 °F 41.7 °F 30.43 in Calm     94% 0.00 in 58 W/m2
07:52 44.0 °F 42.4 °F 30.43 in Calm     94% 0.00 in 60 W/m2
07:58 44.9 °F 43.3 °F 30.43 in Calm     94% 0.00 in 88 W/m2
08:04 45.6 °F 44.0 °F 30.42 in Calm     94% 0.00 in 116 W/m2
08:10 46.3 °F 44.9 °F 30.43 in Calm     95% 0.00 in 70 W/m2
08:16 46.9 °F 45.3 °F 30.44 in Calm     94% 0.00 in 98 W/m2
08:22 47.4 °F 46.0 °F 30.44 in Calm     95% 0.00 in 113 W/m2
08:28 47.8 °F 46.4 °F 30.44 in Calm     95% 0.00 in 84 W/m2
08:34 48.2 °F 46.8 °F 30.42 in Calm     95% 0.00 in 97 W/m2
08:40 48.4 °F 47.0 °F 30.43 in Calm     95% 0.00 in 90 W/m2
08:46 48.8 °F 47.4 °F 30.44 in Calm     95% 0.00 in 102 W/m2
08:52 49.2 °F 47.8 °F 30.44 in Calm     95% 0.00 in 95 W/m2
08:58 49.6 °F 48.2 °F 30.44 in Calm     95% 0.00 in 125 W/m2
09:04 50.1 °F 48.7 °F 30.44 in Calm     95% 0.00 in 107 W/m2
09:10 50.7 °F 49.3 °F 30.44 in Calm     95% 0.00 in 113 W/m2
09:16 50.9 °F 49.2 °F 30.45 in Calm     94% 0.00 in 105 W/m2
09:22 51.4 °F 49.7 °F 30.44 in Calm   1.0 mph 94% 0.00 in 100 W/m2
09:28 51.9 °F 50.2 °F 30.44 in Calm   1.0 mph 94% 0.00 in 100 W/m2
09:34 52.7 °F 50.7 °F 30.44 in Calm     93% 0.00 in 102 W/m2
09:40 53.4 °F 50.8 °F 30.44 in Calm     91% 0.00 in 179 W/m2
09:46 54.6 °F 51.4 °F 30.44 in Calm     89% 0.00 in 457 W/m2
09:52 56.8 °F 51.4 °F 30.44 in Calm     82% 0.00 in 483 W/m2
09:58 58.0 °F 50.5 °F 30.44 in Calm     76% 0.00 in 503 W/m2
10:04 58.9 °F 50.3 °F 30.45 in Calm     73% 0.00 in 522 W/m2
10:10 59.1 °F 48.9 °F 30.44 in North 1.0 mph 1.0 mph 69% 0.00 in 550 W/m2
10:16 59.6 °F 50.2 °F 30.44 in NNW 2.0 mph 2.0 mph 71% 0.00 in 570 W/m2
10:22 60.7 °F 50.5 °F 30.44 in NNW 1.0 mph 4.0 mph 69% 0.00 in 596 W/m2
10:28 59.8 °F 47.6 °F 30.44 in NE 3.0 mph 5.0 mph 64% 0.00 in 617 W/m2
10:34 59.7 °F 46.2 °F 30.45 in NNE 5.0 mph 6.0 mph 61% 0.00 in 619 W/m2
10:40 60.4 °F 48.2 °F 30.45 in North 4.0 mph 4.0 mph 64% 0.00 in 633 W/m2
10:46 61.1 °F 48.0 °F 30.45 in NW 3.0 mph 5.0 mph 62% 0.00 in 643 W/m2
10:52 60.7 °F 48.0 °F 30.45 in WNW 3.0 mph 3.0 mph 63% 0.00 in 652 W/m2
10:58 61.2 °F 47.2 °F 30.44 in NNE 3.0 mph 4.0 mph 60% 0.00 in 664 W/m2
11:04 60.9 °F 46.0 °F 30.44 in NW 4.0 mph 4.0 mph 58% 0.00 in 693 W/m2
11:10 60.9 °F 46.9 °F 30.44 in NNW 3.0 mph 3.0 mph 60% 0.00 in 689 W/m2
11:16 61.6 °F 44.8 °F 30.44 in North 3.0 mph 4.0 mph 54% 0.00 in 708 W/m2
11:22 60.8 °F 43.6 °F 30.44 in NNE 4.0 mph 7.0 mph 53% 0.00 in 714 W/m2
11:28 61.3 °F 44.0 °F 30.44 in NW 5.0 mph 7.0 mph 53% 0.00 in 719 W/m2
11:34 61.6 °F 44.3 °F 30.44 in NNW 3.0 mph 7.0 mph 53% 0.00 in 729 W/m2
11:40 62.0 °F 45.6 °F 30.44 in NNW 3.0 mph 3.0 mph 55% 0.00 in 740 W/m2
11:42 62.3 °F 45.9 °F 30.44 in NNW 3.0 mph 3.0 mph 55% 0.00 in 742 W/m2
11:48 62.7 °F 44.8 °F 30.44 in NW 3.0 mph 4.0 mph 52% 0.00 in 749 W/m2
11:54 61.8 °F 43.5 °F 30.44 in NNW 3.0 mph 7.0 mph 51% 0.00 in 756 W/m2
12:00 61.4 °F 44.1 °F 30.44 in NE 5.0 mph 5.0 mph 53% 0.00 in 759 W/m2
12:06 62.0 °F 46.6 °F 30.44 in NNE 4.0 mph 5.0 mph 57% 0.00 in 763 W/m2
12:12 62.5 °F 44.6 °F 30.44 in NW 2.0 mph 3.0 mph 52% 0.00 in 766 W/m2
12:18 62.2 °F 42.8 °F 30.44 in NNE 3.0 mph 4.0 mph 49% 0.00 in 772 W/m2
12:24 63.4 °F 44.9 °F 30.44 in West 2.0 mph 3.0 mph 51% 0.00 in 772 W/m2
12:30 63.2 °F 44.8 °F 30.43 in NNW 2.0 mph 3.0 mph 51% 0.00 in 777 W/m2
12:36 62.9 °F 43.4 °F 30.43 in NNE 3.0 mph 4.0 mph 49% 0.00 in 772 W/m2
12:42 63.1 °F 46.7 °F 30.43 in WNW 2.0 mph 2.0 mph 55% 0.00 in 775 W/m2
12:48 63.1 °F 43.1 °F 30.43 in NNE 2.0 mph 4.0 mph 48% 0.00 in 780 W/m2
12:54 62.7 °F 45.8 °F 30.42 in West 3.0 mph 5.0 mph 54% 0.00 in 780 W/m2
13:00 63.8 °F 46.8 °F 30.42 in NNW 2.0 mph 3.0 mph 54% 0.00 in 780 W/m2
13:06 63.2 °F 45.3 °F 30.42 in North 3.0 mph 4.0 mph 52% 0.00 in 777 W/m2
13:12 62.9 °F 44.0 °F 30.42 in NNW 3.0 mph 3.0 mph 50% 0.00 in 772 W/m2
13:18 63.7 °F 44.7 °F 30.42 in North 2.0 mph 3.0 mph 50% 0.00 in 772 W/m2
13:24 63.4 °F 49.3 °F 30.42 in NNW 2.0 mph 4.0 mph 60% 0.00 in 777 W/m2
13:30 64.3 °F 45.8 °F 30.42 in West 1.0 mph 1.0 mph 51% 0.00 in 766 W/m2
13:36 64.0 °F 45.0 °F 30.42 in North 1.0 mph 3.0 mph 50% 0.00 in 770 W/m2
13:42 62.8 °F 45.9 °F 30.42 in NNW 3.0 mph 3.0 mph 54% 0.00 in 759 W/m2
13:48 63.4 °F 46.0 °F 30.42 in NNW 3.0 mph 4.0 mph 53% 0.00 in 752 W/m2
13:54 63.8 °F 46.8 °F 30.42 in NW 2.0 mph 3.0 mph 54% 0.00 in 751 W/m2
14:00 64.1 °F 45.6 °F 30.41 in NW 3.0 mph 5.0 mph 51% 0.00 in 751 W/m2
14:06 63.7 °F 44.7 °F 30.41 in North 3.0 mph 5.0 mph 50% 0.00 in 749 W/m2
14:12 64.5 °F 46.5 °F 30.41 in NNE 2.0 mph 4.0 mph 52% 0.00 in 738 W/m2
14:18 64.9 °F 45.8 °F 30.41 in NNW 3.0 mph 4.0 mph 50% 0.00 in 735 W/m2
14:24 64.7 °F 46.1 °F 30.40 in NW 2.0 mph 4.0 mph 51% 0.00 in 731 W/m2
14:30 65.1 °F 49.5 °F 30.40 in NNW 2.0 mph 2.0 mph 57% 0.00 in 721 W/m2
14:36 65.0 °F 47.9 °F 30.40 in NW 2.0 mph 3.0 mph 54% 0.00 in 712 W/m2
14:42 65.1 °F 48.0 °F 30.40 in NW 2.0 mph 3.0 mph 54% 0.00 in 714 W/m2
14:48 64.8 °F 45.7 °F 30.40 in North 2.0 mph 5.0 mph 50% 0.00 in 694 W/m2
14:54 64.8 °F 46.8 °F 30.40 in NW 3.0 mph 3.0 mph 52% 0.00 in 686 W/m2
15:00 64.7 °F 47.7 °F 30.40 in NNW 3.0 mph 3.0 mph 54% 0.00 in 679 W/m2
15:06 64.9 °F 47.4 °F 30.39 in NNW 3.0 mph 5.0 mph 53% 0.00 in 670 W/m2
15:12 64.7 °F 46.7 °F 30.39 in WNW 3.0 mph 3.0 mph 52% 0.00 in 664 W/m2
15:18 65.0 °F 46.9 °F 30.39 in NW 2.0 mph 3.0 mph 52% 0.00 in 652 W/m2
15:24 65.4 °F 46.8 °F 30.39 in NNE 2.0 mph 4.0 mph 51% 0.00 in 642 W/m2
15:30 64.8 °F 46.2 °F 30.39 in NNW 3.0 mph 4.0 mph 51% 0.00 in 628 W/m2
15:36 64.2 °F 45.7 °F 30.39 in NNW 4.0 mph 4.0 mph 51% 0.00 in 619 W/m2
15:42 64.7 °F 47.2 °F 30.39 in North 3.0 mph 3.0 mph 53% 0.00 in 606 W/m2
15:54 64.5 °F 46.0 °F 30.39 in NNW 3.0 mph 4.0 mph 51% 0.00 in 575 W/m2
16:00 64.6 °F 47.1 °F 30.39 in NNW 3.0 mph 3.0 mph 53% 0.00 in 564 W/m2
16:06 65.1 °F 47.5 °F 30.38 in NNW 2.0 mph 3.0 mph 53% 0.00 in 550 W/m2
16:12 64.8 °F 46.8 °F 30.38 in NNE 2.0 mph 2.0 mph 52% 0.00 in 536 W/m2
16:18 65.6 °F 47.5 °F 30.38 in NNW 1.0 mph 6.0 mph 52% 0.00 in 519 W/m2
16:24 64.8 °F 46.2 °F 30.38 in North 2.0 mph 3.0 mph 51% 0.00 in 503 W/m2
16:30 65.2 °F 47.1 °F 30.38 in NW 2.0 mph 2.0 mph 52% 0.00 in 487 W/m2
16:36 65.1 °F 46.5 °F 30.38 in NNW 2.0 mph 5.0 mph 51% 0.00 in 466 W/m2
16:42 64.4 °F 46.4 °F 30.38 in NNW 3.0 mph 5.0 mph 52% 0.00 in 450 W/m2
16:48 64.4 °F 46.4 °F 30.38 in North 3.0 mph 5.0 mph 52% 0.00 in 431 W/m2
16:54 64.5 °F 47.0 °F 30.38 in WNW 2.0 mph 8.0 mph 53% 0.00 in 417 W/m2
17:00 63.9 °F 46.9 °F 30.38 in North 3.0 mph 4.0 mph 54% 0.00 in 396 W/m2
17:06 64.2 °F 47.7 °F 30.38 in NNE 3.0 mph 4.0 mph 55% 0.00 in 374 W/m2
17:12 64.0 °F 47.5 °F 30.37 in NNW 2.0 mph 3.0 mph 55% 0.00 in 359 W/m2
17:18 63.9 °F 46.4 °F 30.37 in NNW 3.0 mph 4.0 mph 53% 0.00 in 338 W/m2
17:24 63.5 °F 47.0 °F 30.38 in NNW 3.0 mph 4.0 mph 55% 0.00 in 322 W/m2
17:30 63.6 °F 48.1 °F 30.38 in NNW 2.0 mph 2.0 mph 57% 0.00 in 308 W/m2
17:36 63.6 °F 48.1 °F 30.38 in NNW 2.0 mph 2.0 mph 57% 0.00 in 290 W/m2
17:42 63.3 °F 47.3 °F 30.38 in NNW 2.0 mph 2.0 mph 56% 0.00 in 77 W/m2
17:48 62.9 °F 47.0 °F 30.38 in NNW 2.0 mph 3.0 mph 56% 0.00 in 83 W/m2
17:54 62.6 °F 47.1 °F 30.38 in NNE 2.0 mph 4.0 mph 57% 0.00 in 42 W/m2
18:00 62.5 °F 47.1 °F 30.38 in NNW 2.0 mph 2.0 mph 57% 0.00 in 178 W/m2
18:06 62.4 °F 47.4 °F 30.38 in NNW 1.0 mph 2.0 mph 58% 0.00 in 37 W/m2
18:12 62.2 °F 47.2 °F 30.38 in NNW 2.0 mph 2.0 mph 58% 0.00 in 40 W/m2
18:18 61.9 °F 47.4 °F 30.38 in NNW 1.0 mph 2.0 mph 59% 0.00 in 37 W/m2
18:24 61.6 °F 48.4 °F 30.37 in Calm   1.0 mph 62% 0.00 in 33 W/m2
18:30 61.4 °F 47.4 °F 30.37 in Calm     60% 0.00 in 28 W/m2
18:36 61.1 °F 47.5 °F 30.37 in Calm     61% 0.00 in 26 W/m2
18:42 60.8 °F 47.7 °F 30.37 in Calm     62% 0.00 in 25 W/m2
18:48 60.5 °F 48.3 °F 30.37 in Calm     64% 0.00 in 21 W/m2
18:54 60.1 °F 48.3 °F 30.37 in Calm   1.0 mph 65% 0.00 in 19 W/m2
19:00 59.7 °F 48.7 °F 30.37 in Calm     67% 0.00 in 16 W/m2
19:06 59.2 °F 49.4 °F 30.37 in Calm     70% 0.00 in 12 W/m2
19:12 58.7 °F 49.7 °F 30.37 in Calm     72% 0.00 in 11 W/m2
19:18 58.0 °F 49.4 °F 30.37 in Calm     73% 0.00 in 5 W/m2
19:24 57.2 °F 49.0 °F 30.37 in Calm     74% 0.00 in 0 W/m2
19:30 56.4 °F 48.9 °F 30.37 in Calm     76% 0.00 in 0 W/m2
19:36 55.7 °F 48.9 °F 30.38 in Calm     78% 0.00 in 0 W/m2
19:42 55.0 °F 48.6 °F 30.38 in Calm     79% 0.00 in 0 W/m2
19:48 54.3 °F 48.6 °F 30.38 in Calm     81% 0.00 in 0 W/m2
19:54 53.9 °F 48.5 °F 30.38 in Calm     82% 0.00 in 0 W/m2
20:00 53.7 °F 48.3 °F 30.38 in Calm     82% 0.00 in 0 W/m2
20:06 53.4 °F 48.4 °F 30.38 in Calm     83% 0.00 in 0 W/m2
20:12 53.0 °F 48.3 °F 30.38 in Calm     84% 0.00 in 0 W/m2
20:18 52.7 °F 48.3 °F 30.38 in Calm     85% 0.00 in 0 W/m2
20:24 52.4 °F 48.0 °F 30.39 in Calm     85% 0.00 in 0 W/m2
20:30 52.0 °F 47.6 °F 30.39 in Calm     85% 0.00 in 0 W/m2
20:36 51.9 °F 48.2 °F 30.39 in Calm     87% 0.00 in 0 W/m2
20:42 51.6 °F 47.9 °F 30.39 in Calm     87% 0.00 in 0 W/m2
20:48 51.4 °F 47.7 °F 30.39 in Calm     87% 0.00 in 0 W/m2
20:54 51.2 °F 47.5 °F 30.39 in Calm     87% 0.00 in 0 W/m2
21:00 51.0 °F 47.3 °F 30.39 in Calm     87% 0.00 in 0 W/m2
21:06 50.7 °F 47.3 °F 30.39 in Calm     88% 0.00 in 0 W/m2
21:12 50.6 °F 47.2 °F 30.39 in Calm     88% 0.00 in 0 W/m2
21:18 50.4 °F 47.0 °F 30.39 in Calm     88% 0.00 in 0 W/m2
21:24 50.2 °F 46.8 °F 30.39 in Calm     88% 0.00 in 0 W/m2
21:30 50.2 °F 47.1 °F 30.39 in Calm     89% 0.00 in 0 W/m2
21:36 50.1 °F 47.0 °F 30.39 in Calm     89% 0.00 in 0 W/m2
21:42 49.9 °F 46.8 °F 30.39 in Calm     89% 0.00 in 0 W/m2
21:48 49.8 °F 46.7 °F 30.39 in Calm     89% 0.00 in 0 W/m2
21:54 49.6 °F 46.5 °F 30.39 in Calm     89% 0.00 in 0 W/m2
22:00 49.3 °F 46.2 °F 30.39 in Calm     89% 0.00 in 0 W/m2
22:06 49.1 °F 46.3 °F 30.39 in Calm     90% 0.00 in 0 W/m2
22:12 49.0 °F 46.2 °F 30.39 in Calm     90% 0.00 in 0 W/m2
22:18 48.7 °F 45.9 °F 30.39 in Calm     90% 0.00 in 0 W/m2
22:24 48.5 °F 45.7 °F 30.40 in Calm     90% 0.00 in 0 W/m2
22:30 48.3 °F 45.5 °F 30.40 in Calm     90% 0.00 in 0 W/m2
22:36 48.1 °F 45.3 °F 30.39 in Calm     90% 0.00 in 0 W/m2
22:42 48.1 °F 45.6 °F 30.39 in Calm     91% 0.00 in 0 W/m2
22:48 48.1 °F 45.6 °F 30.39 in Calm     91% 0.00 in 0 W/m2
22:54 48.4 °F 45.9 °F 30.39 in Calm     91% 0.00 in 0 W/m2
23:00 48.5 °F 46.0 °F 30.39 in Calm     91% 0.00 in 0 W/m2
23:06 48.4 °F 45.9 °F 30.39 in Calm     91% 0.00 in 0 W/m2
23:24 47.8 °F 45.3 °F 30.40 in Calm     91% 0.00 in 0 W/m2
23:30 47.5 °F 45.3 °F 30.40 in Calm     92% 0.00 in 0 W/m2
23:32 47.4 °F 44.9 °F 30.40 in Calm     91% 0.00 in 0 W/m2
23:38 47.2 °F 45.0 °F 30.40 in Calm     92% 0.00 in 0 W/m2
23:40 47.2 °F 45.0 °F 30.40 in Calm     92% 0.00 in 0 W/m2
23:48 47.2 °F 45.0 °F 30.40 in Calm     92% 0.00 in 0 W/m2
23:54 47.2 °F 45.0 °F 30.40 in Calm     92% 0.00 in 0 W/m2
23:58 47.0 °F 44.8 °F 30.40 in Calm     92% 0.00 in 0 W/m2
Country Meadow, Clay, NY, USA
Compliments of Weather Underground - 2 mb